sensor_id;sensor_type;location;lat;lon;timestamp;temperature;humidity
23618;DHT22;18207;32.078;34.818;2024-01-15T00:00:12;21.60;45.60
23618;DHT22;18207;32.078;34.818;2024-01-15T00:02:43;21.60;45.60
23618;DHT22;18207;32.078;34.818;2024-01-15T00:05:12;21.70;45.60
23618;DHT22;18207;32.078;34.818;2024-01-15T00:07:44;21.60;45.50
23618;DHT22;18207;32.078;34.818;2024-01-15T00:10:13;21.60;45.50
23618;DHT22;18207;32.078;34.818;2024-01-15T00:12:43;21.60;45.60
23618;DHT22;18207;32.078;34.818;2024-01-15T00:15:13;21.60;45.60
23618;DHT22;18207;32.078;34.818;2024-01-15T00:17:44;21.60;45.60
23618;DHT22;18207;32.078;34.818;2024-01-15T00:20:13;21.60;45.60
23618;DHT22;18207;32.078;34.818;2024-01-15T00:22:45;21.60;45.60
23618;DHT22;18207;32.078;34.818;2024-01-15T00:25:15;21.70;45.70
23618;DHT22;18207;32.078;34.818;2024-01-15T00:27:45;21.70;45.60
23618;DHT22;18207;32.078;34.818;2024-01-15T00:30:15;21.70;45.60
23618;DHT22;18207;32.078;34.818;2024-01-15T00:32:45;21.70;45.60
23618;DHT22;18207;32.078;34.818;2024-01-15T00:35:15;21.70;45.40
23618;DHT22;18207;32.078;34.818;2024-01-15T00:37:46;21.70;46.10
23618;DHT22;18207;32.078;34.818;2024-01-15T00:40:16;21.60;45.40
23618;DHT22;18207;32.078;34.818;2024-01-15T00:42:45;21.60;45.50
23618;DHT22;18207;32.078;34.818;2024-01-15T00:45:15;21.60;45.40
23618;DHT22;18207;32.078;34.818;2024-01-15T00:47:45;21.60;45.40
23618;DHT22;18207;32.078;34.818;2024-01-15T00:50:15;21.60;45.40
23618;DHT22;18207;32.078;34.818;2024-01-15T00:52:47;21.60;45.50
23618;DHT22;18207;32.078;34.818;2024-01-15T00:55:17;21.60;45.50
23618;DHT22;18207;32.078;34.818;2024-01-15T00:57:46;21.60;45.50
23618;DHT22;18207;32.078;34.818;2024-01-15T01:00:17;21.60;45.50
23618;DHT22;18207;32.078;34.818;2024-01-15T01:02:47;21.50;45.40
23618;DHT22;18207;32.078;34.818;2024-01-15T01:05:17;21.60;45.50
23618;DHT22;18207;32.078;34.818;2024-01-15T01:07:48;21.50;45.50
23618;DHT22;18207;32.078;34.818;2024-01-15T01:10:18;21.50;45.40
23618;DHT22;18207;32.078;34.818;2024-01-15T01:12:51;21.50;45.40
23618;DHT22;18207;32.078;34.818;2024-01-15T01:15:21;21.50;45.40
23618;DHT22;18207;32.078;34.818;2024-01-15T01:17:52;21.40;45.40
23618;DHT22;18207;32.078;34.818;2024-01-15T01:20:22;21.40;45.40
23618;DHT22;18207;32.078;34.818;2024-01-15T01:22:54;21.40;45.50
23618;DHT22;18207;32.078;34.818;2024-01-15T01:25:24;21.40;45.50
23618;DHT22;18207;32.078;34.818;2024-01-15T01:27:54;21.40;45.50
23618;DHT22;18207;32.078;34.818;2024-01-15T01:30:23;21.40;45.50
23618;DHT22;18207;32.078;34.818;2024-01-15T01:32:53;21.40;45.50
23618;DHT22;18207;32.078;34.818;2024-01-15T01:35:23;21.30;45.40
23618;DHT22;18207;32.078;34.818;2024-01-15T01:37:54;21.30;45.40
23618;DHT22;18207;32.078;34.818;2024-01-15T01:40:24;21.30;45.40
23618;DHT22;18207;32.078;34.818;2024-01-15T01:42:54;21.30;45.50
23618;DHT22;18207;32.078;34.818;2024-01-15T01:45:24;21.30;45.50
23618;DHT22;18207;32.078;34.818;2024-01-15T01:48:08;21.30;45.50
23618;DHT22;18207;32.078;34.818;2024-01-15T01:50:38;21.30;45.50
23618;DHT22;18207;32.078;34.818;2024-01-15T01:53:09;21.20;45.40
23618;DHT22;18207;32.078;34.818;2024-01-15T01:55:39;21.20;45.40
23618;DHT22;18207;32.078;34.818;2024-01-15T01:58:19;21.20;45.50
23618;DHT22;18207;32.078;34.818;2024-01-15T02:00:49;21.20;45.60
23618;DHT22;18207;32.078;34.818;2024-01-15T02:03:22;21.20;45.50
23618;DHT22;18207;32.078;34.818;2024-01-15T02:05:52;21.10;45.50
23618;DHT22;18207;32.078;34.818;2024-01-15T02:08:25;21.10;45.60
23618;DHT22;18207;32.078;34.818;2024-01-15T02:10:56;21.10;45.60
23618;DHT22;18207;32.078;34.818;2024-01-15T02:13:25;21.20;45.80
23618;DHT22;18207;32.078;34.818;2024-01-15T02:15:55;21.20;45.80
23618;DHT22;18207;32.078;34.818;2024-01-15T02:18:25;21.20;45.80
23618;DHT22;18207;32.078;34.818;2024-01-15T02:20:55;21.20;45.80
23618;DHT22;18207;32.078;34.818;2024-01-15T02:23:26;21.20;45.70
23618;DHT22;18207;32.078;34.818;2024-01-15T02:25:56;21.20;45.60
23618;DHT22;18207;32.078;34.818;2024-01-15T02:28:26;21.20;45.60
23618;DHT22;18207;32.078;34.818;2024-01-15T02:30:56;21.20;45.60
23618;DHT22;18207;32.078;34.818;2024-01-15T02:33:26;21.10;45.50
23618;DHT22;18207;32.078;34.818;2024-01-15T02:35:56;21.10;45.50
23618;DHT22;18207;32.078;34.818;2024-01-15T02:38:27;21.10;45.60
23618;DHT22;18207;32.078;34.818;2024-01-15T02:40:57;21.10;45.60
23618;DHT22;18207;32.078;34.818;2024-01-15T02:43:27;21.10;45.60
23618;DHT22;18207;32.078;34.818;2024-01-15T02:45:57;21.10;45.60
23618;DHT22;18207;32.078;34.818;2024-01-15T02:48:27;21.10;45.60
23618;DHT22;18207;32.078;34.818;2024-01-15T02:50:57;21.10;45.60
23618;DHT22;18207;32.078;34.818;2024-01-15T02:53:28;21.10;45.60
23618;DHT22;18207;32.078;34.818;2024-01-15T02:55:58;21.00;45.60
23618;DHT22;18207;32.078;34.818;2024-01-15T02:58:28;21.10;45.60
23618;DHT22;18207;32.078;34.818;2024-01-15T03:00:57;21.10;45.60
23618;DHT22;18207;32.078;34.818;2024-01-15T03:03:28;21.10;45.60
23618;DHT22;18207;32.078;34.818;2024-01-15T03:05:58;21.00;45.60
23618;DHT22;18207;32.078;34.818;2024-01-15T03:08:30;21.00;45.50
23618;DHT22;18207;32.078;34.818;2024-01-15T03:11:00;21.00;45.50
23618;DHT22;18207;32.078;34.818;2024-01-15T03:13:30;21.00;45.50
23618;DHT22;18207;32.078;34.818;2024-01-15T03:15:59;21.00;45.50
23618;DHT22;18207;32.078;34.818;2024-01-15T03:18:29;21.00;45.60
23618;DHT22;18207;32.078;34.818;2024-01-15T03:20:59;21.00;45.60
23618;DHT22;18207;32.078;34.818;2024-01-15T03:23:31;20.90;45.60
23618;DHT22;18207;32.078;34.818;2024-01-15T03:26:01;20.90;45.50
23618;DHT22;18207;32.078;34.818;2024-01-15T03:28:31;20.90;45.50
23618;DHT22;18207;32.078;34.818;2024-01-15T03:31:01;20.90;45.40
23618;DHT22;18207;32.078;34.818;2024-01-15T03:33:30;20.90;45.50
23618;DHT22;18207;32.078;34.818;2024-01-15T03:36:00;20.90;45.60
23618;DHT22;18207;32.078;34.818;2024-01-15T03:38:32;20.90;45.50
23618;DHT22;18207;32.078;34.818;2024-01-15T03:41:01;20.90;45.50
23618;DHT22;18207;32.078;34.818;2024-01-15T03:43:31;20.90;45.40
23618;DHT22;18207;32.078;34.818;2024-01-15T03:46:01;20.90;45.50
23618;DHT22;18207;32.078;34.818;2024-01-15T03:48:32;20.90;45.50
23618;DHT22;18207;32.078;34.818;2024-01-15T03:51:02;20.90;45.40
23618;DHT22;18207;32.078;34.818;2024-01-15T03:53:34;20.90;45.40
23618;DHT22;18207;32.078;34.818;2024-01-15T03:56:04;20.90;45.50
23618;DHT22;18207;32.078;34.818;2024-01-15T03:58:34;20.80;45.40
23618;DHT22;18207;32.078;34.818;2024-01-15T04:01:07;20.80;45.40
23618;DHT22;18207;32.078;34.818;2024-01-15T04:03:38;20.80;45.50
23618;DHT22;18207;32.078;34.818;2024-01-15T04:06:08;20.80;45.40
23618;DHT22;18207;32.078;34.818;2024-01-15T04:08:42;20.80;45.40
23618;DHT22;18207;32.078;34.818;2024-01-15T04:11:12;20.80;45.40
23618;DHT22;18207;32.078;34.818;2024-01-15T04:13:41;20.80;45.40
23618;DHT22;18207;32.078;34.818;2024-01-15T04:16:11;20.70;45.30
23618;DHT22;18207;32.078;34.818;2024-01-15T04:18:41;20.70;45.30
23618;DHT22;18207;32.078;34.818;2024-01-15T04:21:11;20.70;45.40
23618;DHT22;18207;32.078;34.818;2024-01-15T04:23:45;20.70;45.40
23618;DHT22;18207;32.078;34.818;2024-01-15T04:26:15;20.70;45.50
23618;DHT22;18207;32.078;34.818;2024-01-15T04:28:45;20.70;45.60
23618;DHT22;18207;32.078;34.818;2024-01-15T04:31:37;20.70;45.70
23618;DHT22;18207;32.078;34.818;2024-01-15T04:34:24;20.70;45.70
23618;DHT22;18207;32.078;34.818;2024-01-15T04:36:54;20.70;45.70
23618;DHT22;18207;32.078;34.818;2024-01-15T04:39:26;20.70;45.80
23618;DHT22;18207;32.078;34.818;2024-01-15T04:41:56;20.70;45.60
23618;DHT22;18207;32.078;34.818;2024-01-15T04:44:26;20.70;45.60
23618;DHT22;18207;32.078;34.818;2024-01-15T04:46:55;20.80;45.60
23618;DHT22;18207;32.078;34.818;2024-01-15T04:49:25;20.80;45.60
23618;DHT22;18207;32.078;34.818;2024-01-15T04:51:57;20.70;45.60
23618;DHT22;18207;32.078;34.818;2024-01-15T04:54:28;20.70;45.60
23618;DHT22;18207;32.078;34.818;2024-01-15T04:56:58;20.70;45.60
23618;DHT22;18207;32.078;34.818;2024-01-15T04:59:28;20.70;45.50
23618;DHT22;18207;32.078;34.818;2024-01-15T05:01:58;20.70;45.60
23618;DHT22;18207;32.078;34.818;2024-01-15T05:04:27;20.70;45.60
23618;DHT22;18207;32.078;34.818;2024-01-15T05:06:57;20.70;45.40
23618;DHT22;18207;32.078;34.818;2024-01-15T05:09:29;20.70;45.50
23618;DHT22;18207;32.078;34.818;2024-01-15T05:12:03;20.70;45.50
23618;DHT22;18207;32.078;34.818;2024-01-15T05:14:36;20.70;45.40
23618;DHT22;18207;32.078;34.818;2024-01-15T05:17:07;20.70;45.40
23618;DHT22;18207;32.078;34.818;2024-01-15T05:19:40;20.70;45.50
23618;DHT22;18207;32.078;34.818;2024-01-15T05:22:12;20.60;45.30
23618;DHT22;18207;32.078;34.818;2024-01-15T05:24:46;20.60;45.40
23618;DHT22;18207;32.078;34.818;2024-01-15T05:27:18;20.70;45.50
23618;DHT22;18207;32.078;34.818;2024-01-15T05:29:51;20.70;45.60
23618;DHT22;18207;32.078;34.818;2024-01-15T05:32:24;20.70;45.60
23618;DHT22;18207;32.078;34.818;2024-01-15T05:34:54;20.70;45.70
23618;DHT22;18207;32.078;34.818;2024-01-15T05:37:25;20.70;45.60
23618;DHT22;18207;32.078;34.818;2024-01-15T05:39:57;20.70;45.60
23618;DHT22;18207;32.078;34.818;2024-01-15T05:42:27;20.80;45.60
23618;DHT22;18207;32.078;34.818;2024-01-15T05:45:00;20.70;45.60
23618;DHT22;18207;32.078;34.818;2024-01-15T05:47:32;20.80;45.60
23618;DHT22;18207;32.078;34.818;2024-01-15T05:50:02;20.80;45.60
23618;DHT22;18207;32.078;34.818;2024-01-15T05:52:32;20.80;45.60
23618;DHT22;18207;32.078;34.818;2024-01-15T05:55:04;20.80;45.50
23618;DHT22;18207;32.078;34.818;2024-01-15T05:57:34;20.90;45.60
23618;DHT22;18207;32.078;34.818;2024-01-15T06:00:05;20.90;45.60
23618;DHT22;18207;32.078;34.818;2024-01-15T06:02:37;20.90;45.60
23618;DHT22;18207;32.078;34.818;2024-01-15T06:05:07;20.90;45.60
23618;DHT22;18207;32.078;34.818;2024-01-15T06:07:37;20.90;45.60
23618;DHT22;18207;32.078;34.818;2024-01-15T06:10:09;20.90;45.60
23618;DHT22;18207;32.078;34.818;2024-01-15T06:12:39;20.90;45.60
23618;DHT22;18207;32.078;34.818;2024-01-15T06:15:10;21.00;45.70
23618;DHT22;18207;32.078;34.818;2024-01-15T06:17:40;21.00;45.70
23618;DHT22;18207;32.078;34.818;2024-01-15T06:20:11;21.00;45.60
23618;DHT22;18207;32.078;34.818;2024-01-15T06:22:41;21.00;45.60
23618;DHT22;18207;32.078;34.818;2024-01-15T06:25:13;21.00;45.60
23618;DHT22;18207;32.078;34.818;2024-01-15T06:27:43;21.00;45.60
23618;DHT22;18207;32.078;34.818;2024-01-15T06:30:13;21.00;45.50
23618;DHT22;18207;32.078;34.818;2024-01-15T06:32:44;21.00;45.50
23618;DHT22;18207;32.078;34.818;2024-01-15T06:35:14;21.10;45.60
23618;DHT22;18207;32.078;34.818;2024-01-15T06:37:48;21.10;45.70
23618;DHT22;18207;32.078;34.818;2024-01-15T06:40:19;21.10;45.80
23618;DHT22;18207;32.078;34.818;2024-01-15T06:42:49;21.10;45.80
23618;DHT22;18207;32.078;34.818;2024-01-15T06:45:19;21.20;45.80
23618;DHT22;18207;32.078;34.818;2024-01-15T06:47:58;21.20;45.80
23618;DHT22;18207;32.078;34.818;2024-01-15T06:50:36;21.20;45.70
23618;DHT22;18207;32.078;34.818;2024-01-15T06:53:06;21.30;45.80
23618;DHT22;18207;32.078;34.818;2024-01-15T06:55:38;21.30;45.70
23618;DHT22;18207;32.078;34.818;2024-01-15T06:58:16;21.30;45.80
23618;DHT22;18207;32.078;34.818;2024-01-15T07:00:46;21.40;46.00
23618;DHT22;18207;32.078;34.818;2024-01-15T07:03:16;21.50;46.20
23618;DHT22;18207;32.078;34.818;2024-01-15T07:05:46;21.50;46.40
23618;DHT22;18207;32.078;34.818;2024-01-15T07:08:16;21.60;46.40
23618;DHT22;18207;32.078;34.818;2024-01-15T07:10:47;21.70;46.50
23618;DHT22;18207;32.078;34.818;2024-01-15T07:13:17;21.80;46.50
23618;DHT22;18207;32.078;34.818;2024-01-15T07:15:47;21.90;46.40
23618;DHT22;18207;32.078;34.818;2024-01-15T07:18:18;22.00;46.40
23618;DHT22;18207;32.078;34.818;2024-01-15T07:20:50;22.00;46.20
23618;DHT22;18207;32.078;34.818;2024-01-15T07:23:20;22.10;46.20
23618;DHT22;18207;32.078;34.818;2024-01-15T07:25:52;22.20;46.80
23618;DHT22;18207;32.078;34.818;2024-01-15T07:28:21;22.20;46.10
23618;DHT22;18207;32.078;34.818;2024-01-15T07:30:51;22.20;46.00
23618;DHT22;18207;32.078;34.818;2024-01-15T07:33:21;22.30;45.90
23618;DHT22;18207;32.078;34.818;2024-01-15T07:35:51;22.30;45.80
23618;DHT22;18207;32.078;34.818;2024-01-15T07:38:21;22.30;45.80
23618;DHT22;18207;32.078;34.818;2024-01-15T07:40:52;22.30;45.80
23618;DHT22;18207;32.078;34.818;2024-01-15T07:43:23;22.30;45.80
23618;DHT22;18207;32.078;34.818;2024-01-15T07:45:52;22.40;45.80
23618;DHT22;18207;32.078;34.818;2024-01-15T07:48:25;22.40;45.60
23618;DHT22;18207;32.078;34.818;2024-01-15T07:50:55;22.40;45.50
23618;DHT22;18207;32.078;34.818;2024-01-15T07:53:25;22.40;45.50
23618;DHT22;18207;32.078;34.818;2024-01-15T07:56:00;22.40;45.40
23618;DHT22;18207;32.078;34.818;2024-01-15T07:58:30;22.30;45.30
23618;DHT22;18207;32.078;34.818;2024-01-15T08:01:00;22.30;45.30
23618;DHT22;18207;32.078;34.818;2024-01-15T08:03:30;22.30;45.30
23618;DHT22;18207;32.078;34.818;2024-01-15T08:06:00;22.30;45.40
23618;DHT22;18207;32.078;34.818;2024-01-15T08:08:30;22.30;45.40
23618;DHT22;18207;32.078;34.818;2024-01-15T08:11:01;22.20;45.30
23618;DHT22;18207;32.078;34.818;2024-01-15T08:13:32;22.20;45.30
23618;DHT22;18207;32.078;34.818;2024-01-15T08:16:02;22.20;45.30
23618;DHT22;18207;32.078;34.818;2024-01-15T08:18:33;22.20;45.40
23618;DHT22;18207;32.078;34.818;2024-01-15T08:21:03;22.20;45.40
23618;DHT22;18207;32.078;34.818;2024-01-15T08:23:35;22.20;45.40
23618;DHT22;18207;32.078;34.818;2024-01-15T08:26:06;22.20;45.40
23618;DHT22;18207;32.078;34.818;2024-01-15T08:28:36;22.20;45.40
23618;DHT22;18207;32.078;34.818;2024-01-15T08:31:06;22.20;45.40
23618;DHT22;18207;32.078;34.818;2024-01-15T08:33:37;22.20;45.40
23618;DHT22;18207;32.078;34.818;2024-01-15T08:36:07;22.20;45.40
23618;DHT22;18207;32.078;34.818;2024-01-15T08:38:38;22.20;45.50
23618;DHT22;18207;32.078;34.818;2024-01-15T08:41:09;22.20;45.40
23618;DHT22;18207;32.078;34.818;2024-01-15T08:43:39;22.20;45.40
23618;DHT22;18207;32.078;34.818;2024-01-15T08:46:09;22.30;45.50
23618;DHT22;18207;32.078;34.818;2024-01-15T08:48:39;22.30;45.60
23618;DHT22;18207;32.078;34.818;2024-01-15T08:51:09;22.30;45.60
23618;DHT22;18207;32.078;34.818;2024-01-15T08:53:39;22.30;45.60
23618;DHT22;18207;32.078;34.818;2024-01-15T08:56:11;22.30;45.70
23618;DHT22;18207;32.078;34.818;2024-01-15T08:58:41;22.40;45.80
23618;DHT22;18207;32.078;34.818;2024-01-15T09:01:11;22.40;45.80
23618;DHT22;18207;32.078;34.818;2024-01-15T09:03:41;22.40;45.70
23618;DHT22;18207;32.078;34.818;2024-01-15T09:06:11;22.40;45.60
23618;DHT22;18207;32.078;34.818;2024-01-15T09:08:41;22.50;45.70
23618;DHT22;18207;32.078;34.818;2024-01-15T09:11:16;22.50;45.70
23618;DHT22;18207;32.078;34.818;2024-01-15T09:13:56;22.50;45.60
23618;DHT22;18207;32.078;34.818;2024-01-15T09:16:26;22.50;45.60
23618;DHT22;18207;32.078;34.818;2024-01-15T09:18:56;22.60;45.70
23618;DHT22;18207;32.078;34.818;2024-01-15T09:21:26;22.60;45.70
23618;DHT22;18207;32.078;34.818;2024-01-15T09:23:55;22.60;45.70
23618;DHT22;18207;32.078;34.818;2024-01-15T09:26:27;22.60;45.60
23618;DHT22;18207;32.078;34.818;2024-01-15T09:28:57;22.60;45.60
23618;DHT22;18207;32.078;34.818;2024-01-15T09:31:27;22.70;45.60
23618;DHT22;18207;32.078;34.818;2024-01-15T09:33:57;22.70;45.60
23618;DHT22;18207;32.078;34.818;2024-01-15T09:36:28;22.70;45.50
23618;DHT22;18207;32.078;34.818;2024-01-15T09:38:58;22.70;45.50
23618;DHT22;18207;32.078;34.818;2024-01-15T09:41:30;22.80;45.50
23618;DHT22;18207;32.078;34.818;2024-01-15T09:44:00;22.80;45.40
23618;DHT22;18207;32.078;34.818;2024-01-15T09:46:31;22.80;45.40
23618;DHT22;18207;32.078;34.818;2024-01-15T09:49:01;22.90;45.50
23618;DHT22;18207;32.078;34.818;2024-01-15T09:51:33;22.90;45.60
23618;DHT22;18207;32.078;34.818;2024-01-15T09:54:03;22.90;45.60
23618;DHT22;18207;32.078;34.818;2024-01-15T09:56:36;22.90;45.60
23618;DHT22;18207;32.078;34.818;2024-01-15T09:59:06;22.90;45.60
23618;DHT22;18207;32.078;34.818;2024-01-15T10:01:37;23.00;45.60
23618;DHT22;18207;32.078;34.818;2024-01-15T10:04:09;23.00;45.60
23618;DHT22;18207;32.078;34.818;2024-01-15T10:06:45;23.10;45.50
23618;DHT22;18207;32.078;34.818;2024-01-15T10:09:15;23.10;45.50
23618;DHT22;18207;32.078;34.818;2024-01-15T10:11:48;23.20;45.60
23618;DHT22;18207;32.078;34.818;2024-01-15T10:14:31;23.20;45.60
23618;DHT22;18207;32.078;34.818;2024-01-15T10:17:12;23.20;45.50
23618;DHT22;18207;32.078;34.818;2024-01-15T10:19:44;23.20;45.30
23618;DHT22;18207;32.078;34.818;2024-01-15T10:22:17;23.20;45.30
23618;DHT22;18207;32.078;34.818;2024-01-15T10:24:46;23.30;45.40
23618;DHT22;18207;32.078;34.818;2024-01-15T10:27:18;23.30;45.30
23618;DHT22;18207;32.078;34.818;2024-01-15T10:29:49;23.30;45.30
23618;DHT22;18207;32.078;34.818;2024-01-15T10:32:23;23.30;45.20
23618;DHT22;18207;32.078;34.818;2024-01-15T10:34:53;23.30;45.20
23618;DHT22;18207;32.078;34.818;2024-01-15T10:37:24;23.30;45.30
23618;DHT22;18207;32.078;34.818;2024-01-15T10:39:56;23.40;45.30
23618;DHT22;18207;32.078;34.818;2024-01-15T10:42:27;23.30;45.20
23618;DHT22;18207;32.078;34.818;2024-01-15T10:44:57;23.40;45.20
23618;DHT22;18207;32.078;34.818;2024-01-15T10:47:27;23.40;45.20
23618;DHT22;18207;32.078;34.818;2024-01-15T10:49:58;23.40;45.20
23618;DHT22;18207;32.078;34.818;2024-01-15T10:52:29;23.40;45.20
23618;DHT22;18207;32.078;34.818;2024-01-15T10:54:59;23.40;45.20
23618;DHT22;18207;32.078;34.818;2024-01-15T10:57:39;23.40;45.00
23618;DHT22;18207;32.078;34.818;2024-01-15T11:00:10;23.50;45.60
23618;DHT22;18207;32.078;34.818;2024-01-15T11:02:43;23.50;44.80
23618;DHT22;18207;32.078;34.818;2024-01-15T11:05:16;23.50;44.80
23618;DHT22;18207;32.078;34.818;2024-01-15T11:07:49;23.50;44.70
23618;DHT22;18207;32.078;34.818;2024-01-15T11:10:41;23.50;44.70
23618;DHT22;18207;32.078;34.818;2024-01-15T11:13:19;23.50;44.60
23618;DHT22;18207;32.078;34.818;2024-01-15T11:15:58;23.50;44.60
23618;DHT22;18207;32.078;34.818;2024-01-15T11:18:31;23.60;44.60
23618;DHT22;18207;32.078;34.818;2024-01-15T11:21:21;23.60;44.60
23618;DHT22;18207;32.078;34.818;2024-01-15T11:23:54;23.50;44.50
23618;DHT22;18207;32.078;34.818;2024-01-15T11:26:30;23.50;44.50
23618;DHT22;18207;32.078;34.818;2024-01-15T11:29:07;23.50;44.50
23618;DHT22;18207;32.078;34.818;2024-01-15T11:32:07;23.50;44.50
23618;DHT22;18207;32.078;34.818;2024-01-15T11:34:58;23.50;44.50
23618;DHT22;18207;32.078;34.818;2024-01-15T11:37:56;23.50;44.50
23618;DHT22;18207;32.078;34.818;2024-01-15T11:40:41;23.50;44.50
23618;DHT22;18207;32.078;34.818;2024-01-15T11:43:15;23.50;44.40
23618;DHT22;18207;32.078;34.818;2024-01-15T11:45:52;23.50;44.50
23618;DHT22;18207;32.078;34.818;2024-01-15T11:48:22;23.50;44.60
23618;DHT22;18207;32.078;34.818;2024-01-15T11:51:08;23.50;44.40
23618;DHT22;18207;32.078;34.818;2024-01-15T11:53:45;23.50;44.40
23618;DHT22;18207;32.078;34.818;2024-01-15T11:56:19;23.50;44.40
23618;DHT22;18207;32.078;34.818;2024-01-15T11:58:52;23.50;44.30
23618;DHT22;18207;32.078;34.818;2024-01-15T12:01:25;23.50;44.30
23618;DHT22;18207;32.078;34.818;2024-01-15T12:03:55;23.50;44.20
23618;DHT22;18207;32.078;34.818;2024-01-15T12:06:26;23.40;44.10
23618;DHT22;18207;32.078;34.818;2024-01-15T12:09:06;23.50;44.10
23618;DHT22;18207;32.078;34.818;2024-01-15T12:11:37;23.40;43.90
23618;DHT22;18207;32.078;34.818;2024-01-15T12:14:10;23.40;43.90
23618;DHT22;18207;32.078;34.818;2024-01-15T12:16:42;23.50;44.00
23618;DHT22;18207;32.078;34.818;2024-01-15T12:19:12;23.50;44.00
23618;DHT22;18207;32.078;34.818;2024-01-15T12:21:44;23.40;43.90
23618;DHT22;18207;32.078;34.818;2024-01-15T12:24:14;23.50;44.60
23618;DHT22;18207;32.078;34.818;2024-01-15T12:26:46;23.50;44.00
23618;DHT22;18207;32.078;34.818;2024-01-15T12:29:18;23.50;44.00
23618;DHT22;18207;32.078;34.818;2024-01-15T12:31:50;23.50;43.90
23618;DHT22;18207;32.078;34.818;2024-01-15T12:34:20;23.40;43.80
23618;DHT22;18207;32.078;34.818;2024-01-15T12:36:50;23.50;43.80
23618;DHT22;18207;32.078;34.818;2024-01-15T12:39:21;23.40;43.70
23618;DHT22;18207;32.078;34.818;2024-01-15T12:41:51;23.40;44.30
23618;DHT22;18207;32.078;34.818;2024-01-15T12:44:22;23.40;43.60
23618;DHT22;18207;32.078;34.818;2024-01-15T12:46:53;23.40;43.60
23618;DHT22;18207;32.078;34.818;2024-01-15T12:49:24;23.40;43.60
23618;DHT22;18207;32.078;34.818;2024-01-15T12:51:54;23.50;43.80
23618;DHT22;18207;32.078;34.818;2024-01-15T12:54:26;23.50;43.80
23618;DHT22;18207;32.078;34.818;2024-01-15T12:56:56;23.50;43.80
23618;DHT22;18207;32.078;34.818;2024-01-15T12:59:26;23.50;43.90
23618;DHT22;18207;32.078;34.818;2024-01-15T13:01:58;23.50;43.90
23618;DHT22;18207;32.078;34.818;2024-01-15T13:04:28;23.50;43.90
23618;DHT22;18207;32.078;34.818;2024-01-15T13:06:58;23.50;44.00
23618;DHT22;18207;32.078;34.818;2024-01-15T13:09:28;23.50;44.00
23618;DHT22;18207;32.078;34.818;2024-01-15T13:11:58;23.50;43.90
23618;DHT22;18207;32.078;34.818;2024-01-15T13:14:29;23.50;44.00
23618;DHT22;18207;32.078;34.818;2024-01-15T13:17:00;23.50;43.90
23618;DHT22;18207;32.078;34.818;2024-01-15T13:19:40;23.50;43.90
23618;DHT22;18207;32.078;34.818;2024-01-15T13:22:10;23.50;43.80
23618;DHT22;18207;32.078;34.818;2024-01-15T13:24:41;23.50;43.90
23618;DHT22;18207;32.078;34.818;2024-01-15T13:27:12;23.50;43.90
23618;DHT22;18207;32.078;34.818;2024-01-15T13:29:42;23.50;43.80
23618;DHT22;18207;32.078;34.818;2024-01-15T13:32:20;23.50;43.80
23618;DHT22;18207;32.078;34.818;2024-01-15T13:34:54;23.50;43.90
23618;DHT22;18207;32.078;34.818;2024-01-15T13:37:24;23.50;43.90
23618;DHT22;18207;32.078;34.818;2024-01-15T13:39:55;23.50;43.80
23618;DHT22;18207;32.078;34.818;2024-01-15T13:42:25;23.50;43.80
23618;DHT22;18207;32.078;34.818;2024-01-15T13:44:55;23.50;43.80
23618;DHT22;18207;32.078;34.818;2024-01-15T13:47:27;23.50;43.80
23618;DHT22;18207;32.078;34.818;2024-01-15T13:49:58;23.50;43.70
23618;DHT22;18207;32.078;34.818;2024-01-15T13:52:28;23.50;43.60
23618;DHT22;18207;32.078;34.818;2024-01-15T13:54:58;23.50;43.60
23618;DHT22;18207;32.078;34.818;2024-01-15T13:57:28;23.50;43.60
23618;DHT22;18207;32.078;34.818;2024-01-15T13:59:57;23.50;43.60
23618;DHT22;18207;32.078;34.818;2024-01-15T14:02:29;23.50;43.60
23618;DHT22;18207;32.078;34.818;2024-01-15T14:05:01;23.50;43.60
23618;DHT22;18207;32.078;34.818;2024-01-15T14:07:33;23.50;43.60
23618;DHT22;18207;32.078;34.818;2024-01-15T14:10:04;23.50;43.50
23618;DHT22;18207;32.078;34.818;2024-01-15T14:12:36;23.50;43.50
23618;DHT22;18207;32.078;34.818;2024-01-15T14:15:07;23.50;43.50
23618;DHT22;18207;32.078;34.818;2024-01-15T14:17:43;23.50;43.40
23618;DHT22;18207;32.078;34.818;2024-01-15T14:20:14;23.50;43.60
23618;DHT22;18207;32.078;34.818;2024-01-15T14:22:49;23.50;43.60
23618;DHT22;18207;32.078;34.818;2024-01-15T14:25:19;23.50;43.60
23618;DHT22;18207;32.078;34.818;2024-01-15T14:27:49;23.50;43.60
23618;DHT22;18207;32.078;34.818;2024-01-15T14:30:19;23.50;43.60
23618;DHT22;18207;32.078;34.818;2024-01-15T14:32:51;23.50;43.60
23618;DHT22;18207;32.078;34.818;2024-01-15T14:35:21;23.50;43.60
23618;DHT22;18207;32.078;34.818;2024-01-15T14:37:51;23.50;43.60
23618;DHT22;18207;32.078;34.818;2024-01-15T14:40:22;23.50;43.60
23618;DHT22;18207;32.078;34.818;2024-01-15T14:42:55;23.50;43.60
23618;DHT22;18207;32.078;34.818;2024-01-15T14:45:25;23.50;43.60
23618;DHT22;18207;32.078;34.818;2024-01-15T14:48:00;23.40;43.60
23618;DHT22;18207;32.078;34.818;2024-01-15T14:50:34;23.50;43.80
23618;DHT22;18207;32.078;34.818;2024-01-15T14:53:05;23.50;43.80
23618;DHT22;18207;32.078;34.818;2024-01-15T14:55:35;23.50;43.80
23618;DHT22;18207;32.078;34.818;2024-01-15T14:58:06;23.50;43.90
23618;DHT22;18207;32.078;34.818;2024-01-15T15:00:35;23.50;43.90
23618;DHT22;18207;32.078;34.818;2024-01-15T15:03:06;23.50;44.50
23618;DHT22;18207;32.078;34.818;2024-01-15T15:05:38;23.50;43.90
23618;DHT22;18207;32.078;34.818;2024-01-15T15:08:08;23.50;43.90
23618;DHT22;18207;32.078;34.818;2024-01-15T15:10:39;23.60;44.00
23618;DHT22;18207;32.078;34.818;2024-01-15T15:13:09;23.50;43.90
23618;DHT22;18207;32.078;34.818;2024-01-15T15:15:39;23.60;44.00
23618;DHT22;18207;32.078;34.818;2024-01-15T15:18:10;23.60;44.00
23618;DHT22;18207;32.078;34.818;2024-01-15T15:20:41;23.60;44.00
23618;DHT22;18207;32.078;34.818;2024-01-15T15:23:11;23.60;44.00
23618;DHT22;18207;32.078;34.818;2024-01-15T15:25:40;23.60;44.00
23618;DHT22;18207;32.078;34.818;2024-01-15T15:28:11;23.60;43.90
23618;DHT22;18207;32.078;34.818;2024-01-15T15:30:44;23.60;43.90
23618;DHT22;18207;32.078;34.818;2024-01-15T15:33:16;23.60;43.90
23618;DHT22;18207;32.078;34.818;2024-01-15T15:35:49;23.60;43.90
23618;DHT22;18207;32.078;34.818;2024-01-15T15:38:19;23.60;43.90
23618;DHT22;18207;32.078;34.818;2024-01-15T15:40:50;23.60;43.90